Coppess Corner, Indiana
Current Conditions -  °F | °C
As of 12:54 AM on Monday 26 Jan 2015 (Local Time) from KFWA Reporting Station
Light Snow Light Snow  
Wind Chill:   Ceiling: 3200
Heat Index: 20°   Visibility: 10mi
Dew Point: 11°   Wind: 14mph
Humidity: 68%   Direction: 40°NE
Pressure: 29.91"   Gusts: NA
Location:  40.7031°N, 84.8406°W
Report Text: KFWA 260554Z 04012KT 10SM -SN BKN032 OVC044 M07/M12 A2991 RMK AO2 SNB20 SLP141 4/002 P0000 60004 T10671117 11061 21072 50005 $
Loading
Personal Weather Stations






























Interactive Weather Map New forecast layout! Learn more

10-Day Weather Forecast

Advertisements
Track Severe Weather on mobile